ENAN/ANX METAR and TAF weather

Enter ICAO airport designator
Station Type Date Time Source
ENAN METAR 2019/08/24 20:50 UTC NOAA

ENAN 242050Z AUTO 18004KT 9999 OVC210/// 06/04 Q1022


Station Type Date Time Source
ENAN Decoded METAR 2019/08/24 20:50 UTC NOAA

Station name not available
Aug 24, 2019 - 04:50 PM EDT / 2019.08.24 2050 UTC
Wind: from the S (180 degrees) at 5 MPH (4 KT):0
Visibility: greater than 7 mile(s):0
Sky conditions: overcast
Temperature: 42 F (6 C)
Dew Point: 39 F (4 C)
Relative Humidity: 86%
Pressure (altimeter): 30.18 in. Hg (1022 hPa)
ob: ENAN 242050Z AUTO 18004KT 9999 OVC210/// 06/04 Q1022
cycle: 21

Station Type Date Time Source
ENAN TAF 2019/08/24 19:36 UTC NOAA

TAF
AMD ENAN 241923Z 2419/2518 14008KT 9999 FEW012 BKN025
TEMPO 2508/2518 4000 SHRA SCT006 BKN012CB
BECMG 2514/2516 20012KT

Example: see airport list